createdAt,value
2024-04-04T00:01:52.884Z,60.52
2024-04-04T00:04:26.447Z,60.56
2024-04-04T00:06:59.502Z,60.53
2024-04-04T00:09:31.594Z,60.71
2024-04-04T00:12:03.705Z,60.67
2024-04-04T00:14:36.157Z,60.58
2024-04-04T00:17:08.591Z,60.31
2024-04-04T00:19:40.691Z,60.32
2024-04-04T00:22:12.990Z,60.31
2024-04-04T00:24:45.466Z,60.39
2024-04-04T00:27:17.555Z,60.52
2024-04-04T00:29:50.386Z,60.57
2024-04-04T00:32:22.655Z,60.61
2024-04-04T00:34:54.900Z,60.28
2024-04-04T00:37:27.350Z,60.35
2024-04-04T00:39:59.445Z,59.99
2024-04-04T00:42:33.329Z,60.24
2024-04-04T00:45:06.202Z,60.27
2024-04-04T00:47:38.343Z,60.40
2024-04-04T00:50:10.553Z,60.15
2024-04-04T00:52:43.613Z,60.58
2024-04-04T00:55:15.724Z,61.04
2024-04-04T00:57:49.054Z,60.75
2024-04-04T01:00:23.416Z,60.66
2024-04-04T01:02:55.703Z,60.72
2024-04-04T01:05:27.956Z,61.01
2024-04-04T01:08:00.482Z,61.03
2024-04-04T01:10:32.778Z,59.61
2024-04-04T01:13:05.156Z,59.17
2024-04-04T01:15:37.223Z,58.89
2024-04-04T01:18:11.184Z,58.67
2024-04-04T01:20:43.552Z,58.63
2024-04-04T01:23:16.074Z,59.07
2024-04-04T01:25:48.626Z,58.87
2024-04-04T01:28:21.582Z,59.26
2024-04-04T01:30:53.882Z,59.77
2024-04-04T01:33:26.175Z,59.70
2024-04-04T01:35:58.420Z,59.94
2024-04-04T01:38:30.884Z,59.77
2024-04-04T01:41:03.235Z,59.23
2024-04-04T01:43:35.669Z,59.28
2024-04-04T01:46:07.994Z,58.87
2024-04-04T01:48:40.523Z,59.43
2024-04-04T01:51:12.998Z,59.70
2024-04-04T01:53:45.128Z,60.11
2024-04-04T01:56:18.129Z,60.84
2024-04-04T01:58:50.745Z,60.92
2024-04-04T02:01:22.911Z,61.23
2024-04-04T02:03:55.912Z,61.05
2024-04-04T02:06:28.296Z,61.00
2024-04-04T02:09:01.122Z,60.93
2024-04-04T02:11:33.775Z,60.86
2024-04-04T02:14:06.787Z,60.66
2024-04-04T02:16:41.308Z,60.55
2024-04-04T02:19:13.901Z,60.63
2024-04-04T02:21:46.928Z,60.64
2024-04-04T02:24:19.074Z,60.91
2024-04-04T02:26:51.467Z,60.83
2024-04-04T02:29:23.920Z,60.48
2024-04-04T02:31:56.238Z,60.83
2024-04-04T02:34:28.860Z,61.37
2024-04-04T02:37:01.295Z,61.32
2024-04-04T02:39:34.348Z,61.49
2024-04-04T02:42:06.836Z,61.81
2024-04-04T02:44:39.113Z,61.58
2024-04-04T02:47:11.592Z,61.82
2024-04-04T02:49:43.741Z,61.88
2024-04-04T02:52:16.402Z,62.27
2024-04-04T02:54:48.635Z,62.35
2024-04-04T02:57:21.658Z,62.41
2024-04-04T02:59:54.394Z,62.52
2024-04-04T03:02:27.400Z,62.39
2024-04-04T03:05:00.158Z,62.34
2024-04-04T03:07:34.385Z,62.09
2024-04-04T03:10:08.235Z,62.01
2024-04-04T03:12:40.607Z,62.13
2024-04-04T03:15:14.143Z,62.16
2024-04-04T03:17:47.118Z,61.76
2024-04-04T03:20:20.735Z,61.55
2024-04-04T03:22:55.504Z,61.97
2024-04-04T03:25:27.796Z,61.45
2024-04-04T03:27:59.933Z,61.02
2024-04-04T03:30:32.677Z,61.71
2024-04-04T03:33:05.224Z,61.60
2024-04-04T03:35:41.133Z,61.86
2024-04-04T03:38:13.692Z,62.00
2024-04-04T03:40:55.958Z,61.30
2024-04-04T03:43:28.231Z,60.70
2024-04-04T03:46:06.055Z,61.00
2024-04-04T03:48:38.973Z,60.71
2024-04-04T03:51:12.932Z,60.61
2024-04-04T03:53:46.012Z,60.59
2024-04-04T03:56:18.463Z,60.26
2024-04-04T03:58:51.659Z,59.80
2024-04-04T04:01:24.824Z,59.33
2024-04-04T04:03:58.005Z,59.21
2024-04-04T04:06:31.670Z,58.58
2024-04-04T04:09:09.013Z,58.96
2024-04-04T04:11:42.279Z,59.14
2024-04-04T04:14:16.570Z,58.94
2024-04-04T04:16:48.807Z,58.97
2024-04-04T04:19:21.127Z,59.03
2024-04-04T04:21:54.096Z,58.86
2024-04-04T04:24:26.893Z,58.56
2024-04-04T04:27:01.617Z,58.25
2024-04-04T04:29:35.225Z,58.43
2024-04-04T04:32:08.834Z,58.70
2024-04-04T04:34:43.385Z,58.99
2024-04-04T04:37:16.137Z,58.29
2024-04-04T04:39:51.573Z,58.08
2024-04-04T04:42:24.391Z,58.40
2024-04-04T04:44:59.169Z,57.96
2024-04-04T04:47:34.620Z,57.58
2024-04-04T04:50:08.753Z,57.24
2024-04-04T04:52:43.044Z,56.80
2024-04-04T04:55:15.994Z,56.12
2024-04-04T04:57:48.315Z,56.29
2024-04-04T05:00:22.495Z,55.44
2024-04-04T05:02:55.514Z,56.11
2024-04-04T05:05:28.377Z,55.90
2024-04-04T05:08:03.766Z,55.32
2024-04-04T05:10:39.992Z,55.09
2024-04-04T05:13:14.586Z,56.19
2024-04-04T05:15:55.226Z,56.47
2024-04-04T05:18:33.104Z,56.36
2024-04-04T05:21:09.194Z,55.45
2024-04-04T05:23:41.897Z,54.78
2024-04-04T05:26:14.251Z,55.19
2024-04-04T05:28:48.831Z,54.83
2024-04-04T05:31:21.077Z,55.47
2024-04-04T05:33:55.211Z,55.54
2024-04-04T05:36:28.540Z,57.02
2024-04-04T05:39:02.597Z,58.43
2024-04-04T05:41:35.395Z,57.85
2024-04-04T05:44:10.838Z,59.22
2024-04-04T05:46:44.577Z,59.43
2024-04-04T05:49:17.776Z,59.66
2024-04-04T05:51:50.166Z,60.11
2024-04-04T05:54:23.913Z,59.26
2024-04-04T05:56:57.613Z,58.82
2024-04-04T05:59:31.531Z,57.92
2024-04-04T06:02:04.973Z,56.42
2024-04-04T06:04:46.495Z,55.95
2024-04-04T06:07:14.793Z,55.79
2024-04-04T06:09:48.920Z,55.52
2024-04-04T06:12:22.597Z,56.05
2024-04-04T06:14:56.344Z,55.22
2024-04-04T06:17:30.136Z,55.83
2024-04-04T06:20:07.830Z,54.97
2024-04-04T06:22:40.363Z,53.20
2024-04-04T06:25:14.443Z,52.89
2024-04-04T06:27:48.677Z,51.79
2024-04-04T06:30:22.896Z,51.66
2024-04-04T06:32:56.815Z,50.16
2024-04-04T06:35:29.861Z,50.04
2024-04-04T06:38:03.144Z,50.61
2024-04-04T06:40:42.728Z,50.94
2024-04-04T06:43:16.464Z,50.64
2024-04-04T06:45:50.496Z,51.75
2024-04-04T06:48:24.004Z,50.71
2024-04-04T06:50:57.451Z,50.79
2024-04-04T06:53:31.675Z,50.52
2024-04-04T06:56:06.297Z,50.29
2024-04-04T06:58:39.218Z,49.26
2024-04-04T07:01:11.755Z,49.76
2024-04-04T07:03:44.646Z,48.58
2024-04-04T07:06:18.064Z,48.69
2024-04-04T07:08:53.207Z,48.13
2024-04-04T07:11:27.250Z,48.35
2024-04-04T07:14:04.242Z,48.07
2024-04-04T07:16:41.937Z,47.72
2024-04-04T07:19:16.238Z,46.74
2024-04-04T07:21:51.366Z,47.24
2024-04-04T07:24:24.949Z,46.33
2024-04-04T07:26:58.243Z,46.32
2024-04-04T07:29:32.686Z,45.20
2024-04-04T07:32:05.831Z,44.87
2024-04-04T07:34:39.348Z,44.40
2024-04-04T07:37:12.663Z,45.35
2024-04-04T07:39:46.019Z,44.79
2024-04-04T07:42:20.190Z,45.44
2024-04-04T07:44:55.910Z,44.91
2024-04-04T07:47:29.987Z,45.44
2024-04-04T07:50:05.134Z,45.50
2024-04-04T07:52:39.964Z,44.97
2024-04-04T07:55:17.419Z,44.48
2024-04-04T07:57:52.125Z,44.75
2024-04-04T08:00:26.165Z,44.25
2024-04-04T08:03:00.474Z,44.10
2024-04-04T08:05:35.006Z,44.18
2024-04-04T08:08:09.109Z,43.16
2024-04-04T08:10:43.164Z,42.81
2024-04-04T08:13:17.466Z,43.30
2024-04-04T08:15:54.056Z,43.11
2024-04-04T08:18:29.573Z,43.25
2024-04-04T08:21:02.876Z,43.39
2024-04-04T08:23:37.978Z,43.47
2024-04-04T08:26:11.754Z,43.04
2024-04-04T08:28:45.031Z,44.10
2024-04-04T08:31:18.096Z,43.69
2024-04-04T08:33:52.967Z,43.79
2024-04-04T08:36:26.691Z,44.64
2024-04-04T08:38:59.690Z,44.06
2024-04-04T08:41:33.604Z,44.87
2024-04-04T08:44:09.917Z,43.96
2024-04-04T08:46:43.906Z,44.55
2024-04-04T08:49:18.114Z,44.72
2024-04-04T08:51:52.763Z,45.30
2024-04-04T08:54:28.802Z,46.67
2024-04-04T08:57:04.523Z,46.87
2024-04-04T08:59:40.303Z,47.60
2024-04-04T09:02:13.246Z,48.13
2024-04-04T09:04:47.530Z,48.84
2024-04-04T09:07:20.469Z,47.56
2024-04-04T09:09:54.256Z,47.68
2024-04-04T09:12:28.264Z,47.85
2024-04-04T09:15:04.177Z,48.07
2024-04-04T09:17:37.957Z,48.16
2024-04-04T09:20:12.396Z,48.44
2024-04-04T09:22:46.474Z,47.00
2024-04-04T09:25:20.886Z,46.74
2024-04-04T09:27:54.566Z,46.37
2024-04-04T09:30:31.116Z,46.60
2024-04-04T09:33:04.756Z,46.56
2024-04-04T09:35:37.693Z,46.43
2024-04-04T09:38:11.905Z,46.75
2024-04-04T09:40:46.211Z,48.76
2024-04-04T09:43:18.801Z,49.79
2024-04-04T09:45:52.513Z,50.37
2024-04-04T09:48:35.604Z,54.17
2024-04-04T09:51:03.701Z,54.36
2024-04-04T09:53:39.716Z,51.63
2024-04-04T09:56:14.268Z,51.73
2024-04-04T09:58:49.796Z,49.09
2024-04-04T10:01:28.013Z,49.18
2024-04-04T10:04:04.530Z,48.47
2024-04-04T10:06:40.002Z,48.60
2024-04-04T10:09:17.924Z,50.25
2024-04-04T10:11:55.337Z,52.29
2024-04-04T10:14:29.457Z,54.75
2024-04-04T10:17:05.608Z,55.93
2024-04-04T10:19:39.984Z,56.45
2024-04-04T10:22:20.582Z,57.42
2024-04-04T10:24:56.749Z,58.12
2024-04-04T10:27:34.824Z,57.94
2024-04-04T10:30:10.623Z,57.82
2024-04-04T10:32:44.819Z,57.28
2024-04-04T10:35:19.108Z,56.95
2024-04-04T10:37:54.780Z,56.93
2024-04-04T10:40:29.207Z,55.13
2024-04-04T10:43:02.374Z,53.98
2024-04-04T10:45:37.004Z,54.27
2024-04-04T10:48:10.749Z,54.24
2024-04-04T10:50:46.102Z,53.28
2024-04-04T10:53:20.945Z,53.15
2024-04-04T10:55:55.379Z,51.22
2024-04-04T10:58:30.930Z,51.28
2024-04-04T11:01:05.351Z,49.22
2024-04-04T11:03:41.568Z,48.61
2024-04-04T11:06:17.116Z,49.02
2024-04-04T11:08:51.640Z,47.78
2024-04-04T11:11:26.415Z,48.00
2024-04-04T11:14:01.476Z,47.99
2024-04-04T11:16:34.395Z,47.51
2024-04-04T11:19:09.873Z,47.75
2024-04-04T11:21:43.615Z,48.90
2024-04-04T11:24:18.423Z,49.00
2024-04-04T11:26:54.461Z,49.09
2024-04-04T11:29:27.386Z,48.97
2024-04-04T11:32:01.921Z,48.89
2024-04-04T11:34:36.761Z,49.47
2024-04-04T11:37:12.938Z,49.51
2024-04-04T11:39:47.732Z,50.47
2024-04-04T11:42:23.163Z,50.84
2024-04-04T11:44:57.860Z,51.34
2024-04-04T11:47:31.143Z,51.60
2024-04-04T11:50:05.496Z,51.71
2024-04-04T11:52:38.627Z,51.63
2024-04-04T11:55:13.357Z,51.18
2024-04-04T11:57:46.541Z,51.58
2024-04-04T12:00:20.415Z,52.33
2024-04-04T12:02:54.846Z,53.09
2024-04-04T12:05:27.912Z,53.56
2024-04-04T12:08:00.774Z,53.63
2024-04-04T12:10:33.622Z,54.00
2024-04-04T12:13:06.699Z,54.63
2024-04-04T12:15:44.577Z,54.69
2024-04-04T12:18:35.322Z,54.49
2024-04-04T12:21:10.480Z,54.00
2024-04-04T12:23:53.021Z,53.82
2024-04-04T12:26:21.965Z,54.31
2024-04-04T12:28:57.799Z,53.50
2024-04-04T12:31:32.237Z,53.29
2024-04-04T12:34:06.038Z,53.15
2024-04-04T12:36:40.911Z,52.52
2024-04-04T12:39:15.551Z,52.09
2024-04-04T12:41:49.406Z,52.02
2024-04-04T12:44:22.895Z,51.19
2024-04-04T12:46:55.911Z,50.86
2024-04-04T12:49:29.414Z,50.11
2024-04-04T12:52:02.683Z,50.18
2024-04-04T12:54:35.441Z,49.94
2024-04-04T12:57:08.559Z,50.09
2024-04-04T12:59:40.870Z,49.35
2024-04-04T13:02:13.267Z,49.15
2024-04-04T13:04:46.504Z,48.84
2024-04-04T13:07:19.426Z,47.97
2024-04-04T13:09:52.250Z,47.71
2024-04-04T13:12:25.309Z,48.51
2024-04-04T13:14:58.156Z,48.52
2024-04-04T13:17:30.556Z,48.80
2024-04-04T13:20:05.073Z,48.42
2024-04-04T13:22:39.835Z,48.69
2024-04-04T13:25:13.712Z,48.72
2024-04-04T13:27:48.127Z,48.19
2024-04-04T13:30:21.488Z,48.40
2024-04-04T13:32:55.797Z,48.53
2024-04-04T13:35:31.719Z,48.58
2024-04-04T13:38:06.318Z,48.80
2024-04-04T13:40:39.468Z,49.07
2024-04-04T13:43:13.312Z,49.37
2024-04-04T13:45:47.075Z,48.81
2024-04-04T13:48:21.405Z,48.41
2024-04-04T13:51:00.342Z,48.35
2024-04-04T13:53:36.144Z,48.90
2024-04-04T13:56:10.729Z,49.61
2024-04-04T13:58:44.492Z,49.54
2024-04-04T14:01:17.707Z,49.12
2024-04-04T14:03:52.009Z,50.30
2024-04-04T14:06:26.290Z,49.92
2024-04-04T14:09:01.104Z,50.66
2024-04-04T14:11:33.842Z,50.66
2024-04-04T14:14:09.345Z,49.87
2024-04-04T14:16:45.153Z,49.65
2024-04-04T14:19:22.138Z,49.85
2024-04-04T14:21:55.819Z,50.09
2024-04-04T14:24:29.004Z,50.44
2024-04-04T14:27:02.707Z,50.73
2024-04-04T14:29:36.081Z,50.31
2024-04-04T14:32:08.649Z,50.06
2024-04-04T14:34:42.704Z,50.19
2024-04-04T14:37:15.511Z,50.31
2024-04-04T14:39:47.856Z,50.50
2024-04-04T14:42:21.308Z,51.34
2024-04-04T14:44:53.395Z,51.11
2024-04-04T14:47:26.251Z,51.14
2024-04-04T14:49:58.714Z,51.73
2024-04-04T14:52:34.303Z,51.76
2024-04-04T14:55:07.208Z,52.42
2024-04-04T14:57:40.780Z,52.37
2024-04-04T15:00:15.245Z,52.38
2024-04-04T15:02:49.273Z,52.85
2024-04-04T15:05:21.422Z,53.45
2024-04-04T15:07:53.287Z,52.84
2024-04-04T15:10:29.081Z,52.92
2024-04-04T15:13:02.144Z,52.77
2024-04-04T15:15:36.173Z,53.25
2024-04-04T15:18:09.995Z,53.51
2024-04-04T15:20:43.053Z,53.76
2024-04-04T15:23:16.445Z,54.24
2024-04-04T15:25:50.461Z,54.24
2024-04-04T15:28:25.551Z,53.96
2024-04-04T15:30:58.519Z,54.67
2024-04-04T15:33:31.222Z,54.07
2024-04-04T15:36:06.113Z,53.59
2024-04-04T15:38:40.150Z,53.62
2024-04-04T15:41:34.859Z,53.63
2024-04-04T15:44:10.320Z,54.46
2024-04-04T15:46:42.976Z,54.09
2024-04-04T15:49:16.960Z,54.87
2024-04-04T15:51:53.122Z,54.40
2024-04-04T15:54:27.246Z,54.64
2024-04-04T15:57:02.108Z,54.98
2024-04-04T15:59:36.986Z,54.51
2024-04-04T16:02:11.088Z,54.51
2024-04-04T16:04:43.741Z,54.16
2024-04-04T16:07:16.713Z,55.06
2024-04-04T16:09:50.261Z,55.12
2024-04-04T16:12:23.648Z,55.06
2024-04-04T16:14:56.791Z,55.68
2024-04-04T16:17:31.650Z,55.86
2024-04-04T16:20:07.592Z,55.69
2024-04-04T16:22:41.209Z,55.92
2024-04-04T16:25:14.682Z,55.93
2024-04-04T16:27:49.979Z,55.74
2024-04-04T16:30:25.737Z,55.69
2024-04-04T16:32:59.953Z,55.95
2024-04-04T16:35:33.139Z,55.22
2024-04-04T16:38:15.193Z,54.82
2024-04-04T16:40:48.745Z,54.75
2024-04-04T16:43:24.008Z,54.80
2024-04-04T16:45:57.517Z,54.91
2024-04-04T16:48:32.140Z,54.74
2024-04-04T16:51:05.226Z,55.29
2024-04-04T16:53:38.953Z,54.91
2024-04-04T16:56:13.354Z,55.22
2024-04-04T16:58:47.116Z,55.81
2024-04-04T17:01:23.423Z,55.95
2024-04-04T17:03:56.465Z,55.73
2024-04-04T17:06:30.302Z,56.06
2024-04-04T17:09:05.263Z,55.19
2024-04-04T17:11:39.454Z,55.11
2024-04-04T17:14:13.583Z,55.35
2024-04-04T17:16:48.260Z,55.21
2024-04-04T17:19:22.791Z,54.58
2024-04-04T17:21:56.197Z,54.63
2024-04-04T17:24:29.143Z,54.51
2024-04-04T17:27:01.556Z,54.69
2024-04-04T17:29:36.071Z,54.96
2024-04-04T17:32:09.524Z,54.56
2024-04-04T17:34:41.826Z,54.60
2024-04-04T17:37:14.884Z,55.51
2024-04-04T17:39:49.087Z,55.08
2024-04-04T17:42:21.961Z,55.17
2024-04-04T17:44:55.161Z,54.94
2024-04-04T17:47:28.796Z,55.36
2024-04-04T17:50:01.816Z,55.44
2024-04-04T17:52:39.148Z,55.51
2024-04-04T17:55:09.844Z,55.82
2024-04-04T17:58:02.007Z,56.50
2024-04-04T18:00:39.966Z,56.26
2024-04-04T18:03:14.949Z,56.24
2024-04-04T18:05:48.647Z,56.36
2024-04-04T18:08:21.711Z,56.27
2024-04-04T18:10:54.366Z,56.70
2024-04-04T18:13:26.854Z,56.50
2024-04-04T18:15:59.447Z,56.65
2024-04-04T18:18:33.037Z,56.13
2024-04-04T18:21:06.505Z,56.17
2024-04-04T18:23:40.709Z,56.06
2024-04-04T18:26:13.243Z,55.63
2024-04-04T18:31:37.560Z,56.55
2024-04-04T18:34:10.844Z,56.62
2024-04-04T18:36:44.125Z,56.14
2024-04-04T18:39:17.383Z,55.97
2024-04-04T18:41:51.716Z,55.88
2024-04-04T18:44:25.848Z,55.87
2024-04-04T18:46:59.209Z,55.85
2024-04-04T18:49:31.670Z,55.75
2024-04-04T18:52:05.244Z,56.07
2024-04-04T18:54:56.232Z,56.05
2024-04-04T18:57:29.088Z,55.76
2024-04-04T19:00:01.824Z,55.81
2024-04-04T19:02:38.912Z,56.66
2024-04-04T19:05:12.920Z,56.29
2024-04-04T19:07:47.290Z,56.08
2024-04-04T19:10:20.749Z,55.99
2024-04-04T19:12:53.755Z,55.66
2024-04-04T19:15:27.292Z,55.38
2024-04-04T19:18:00.319Z,55.65
2024-04-04T19:20:33.675Z,55.64
2024-04-04T19:23:07.243Z,55.71
2024-04-04T19:25:39.646Z,55.69
2024-04-04T19:28:13.928Z,55.14
2024-04-04T19:30:59.784Z,55.41
2024-04-04T19:33:34.776Z,55.58
2024-04-04T19:36:09.897Z,55.07
2024-04-04T19:38:42.959Z,55.50
2024-04-04T19:41:15.638Z,55.80
2024-04-04T19:43:48.171Z,55.98
2024-04-04T19:46:21.078Z,56.64
2024-04-04T19:48:53.868Z,56.81
2024-04-04T19:51:26.146Z,56.26
2024-04-04T19:53:58.560Z,55.98
2024-04-04T19:56:32.346Z,55.72
2024-04-04T19:59:07.044Z,56.31
2024-04-04T20:01:40.230Z,56.19
2024-04-04T20:04:14.109Z,55.89
2024-04-04T20:06:46.425Z,55.87
2024-04-04T20:09:18.948Z,56.01
2024-04-04T20:11:51.966Z,56.06
2024-04-04T20:14:24.747Z,56.08
2024-04-04T20:16:58.178Z,55.42
2024-04-04T20:19:30.554Z,54.90
2024-04-04T20:22:04.732Z,54.27
2024-04-04T20:24:37.388Z,54.49
2024-04-04T20:27:09.908Z,54.40
2024-04-04T20:29:42.601Z,54.50
2024-04-04T20:32:16.362Z,54.46
2024-04-04T20:34:48.773Z,54.71
2024-04-04T20:37:21.134Z,54.92
2024-04-04T20:39:55.115Z,55.28
2024-04-04T20:42:27.466Z,54.87
2024-04-04T20:45:00.216Z,55.02
2024-04-04T20:47:34.682Z,54.96
2024-04-04T20:50:07.449Z,55.14
2024-04-04T20:52:41.959Z,54.96
2024-04-04T20:55:13.455Z,54.91
2024-04-04T20:57:45.284Z,54.42
2024-04-04T21:00:17.968Z,54.21
2024-04-04T21:02:50.804Z,54.13
2024-04-04T21:05:25.514Z,54.25
2024-04-04T21:07:58.076Z,54.85
2024-04-04T21:10:31.053Z,54.95
2024-04-04T21:13:03.824Z,55.29
2024-04-04T21:15:36.914Z,55.07
2024-04-04T21:18:11.284Z,54.60
2024-04-04T21:20:44.660Z,54.73
2024-04-04T21:23:17.860Z,54.47
2024-04-04T21:25:51.346Z,54.66
2024-04-04T21:28:23.812Z,54.63
2024-04-04T21:31:03.007Z,54.83
2024-04-04T21:33:37.494Z,55.01
2024-04-04T21:36:12.230Z,55.39
2024-04-04T21:38:45.830Z,55.05
2024-04-04T21:41:19.819Z,55.09
2024-04-04T21:43:52.959Z,55.07
2024-04-04T21:46:25.351Z,54.81
2024-04-04T21:48:57.817Z,54.70
2024-04-04T21:51:30.105Z,54.63
2024-04-04T21:54:03.137Z,55.00
2024-04-04T21:56:35.414Z,54.92
2024-04-04T21:59:09.164Z,54.84
2024-04-04T22:01:41.395Z,54.79
2024-04-04T22:04:14.804Z,54.45
2024-04-04T22:06:48.729Z,54.52
2024-04-04T22:09:20.974Z,54.70
2024-04-04T22:11:53.373Z,55.33
2024-04-04T22:14:26.199Z,55.17
2024-04-04T22:16:59.429Z,55.17
2024-04-04T22:19:32.134Z,55.37
2024-04-04T22:22:04.803Z,55.08
2024-04-04T22:24:37.154Z,55.14
2024-04-04T22:27:12.318Z,55.36
2024-04-04T22:29:47.472Z,54.97
2024-04-04T22:32:19.047Z,54.66
2024-04-04T22:34:52.020Z,54.36
2024-04-04T22:37:24.979Z,54.23
2024-04-04T22:39:57.560Z,54.75
2024-04-04T22:42:29.738Z,55.01
2024-04-04T22:45:01.912Z,55.17
2024-04-04T22:47:34.381Z,55.61
2024-04-04T22:50:10.079Z,55.60
2024-04-04T22:52:43.028Z,56.23
2024-04-04T22:55:16.260Z,55.88
2024-04-04T22:57:53.527Z,55.64
2024-04-04T23:00:26.773Z,55.78
2024-04-04T23:02:59.611Z,55.70
2024-04-04T23:05:31.994Z,55.47
2024-04-04T23:08:04.536Z,55.17
2024-04-04T23:10:40.431Z,55.46
2024-04-04T23:13:13.437Z,55.33
2024-04-04T23:15:46.438Z,55.54
2024-04-04T23:18:18.951Z,55.66
2024-04-04T23:20:52.860Z,55.58
2024-04-04T23:23:25.864Z,55.37
2024-04-04T23:25:59.100Z,55.55
2024-04-04T23:28:31.707Z,55.73
2024-04-04T23:31:03.907Z,55.66
2024-04-04T23:33:36.522Z,55.76
2024-04-04T23:36:09.133Z,55.97
2024-04-04T23:38:41.765Z,55.93
2024-04-04T23:41:13.874Z,56.02
2024-04-04T23:43:46.398Z,55.78
2024-04-04T23:46:18.668Z,56.03
2024-04-04T23:48:50.790Z,55.71
2024-04-04T23:51:23.326Z,55.84
2024-04-04T23:53:55.950Z,55.99
2024-04-04T23:56:30.643Z,56.24
2024-04-04T23:59:03.436Z,56.81
